createdAt,value
2017-08-19T00:04:47.909Z,26.5
2017-08-19T00:09:53.651Z,26.5
2017-08-19T00:14:59.065Z,26.5
2017-08-19T00:20:04.812Z,26.5
2017-08-19T00:25:10.557Z,26.5
2017-08-19T00:30:15.996Z,26.5
2017-08-19T00:35:21.791Z,26.4
2017-08-19T00:40:27.226Z,26.4
2017-08-19T00:45:33.333Z,26.4
2017-08-19T00:50:38.743Z,26.4
2017-08-19T00:55:44.849Z,26.4
2017-08-19T01:00:49.933Z,26.4
2017-08-19T01:05:55.002Z,26.4
2017-08-19T01:10:59.741Z,26.4
2017-08-19T01:16:05.819Z,26.4
2017-08-19T01:21:11.225Z,26.4
2017-08-19T01:26:16.973Z,26.4
2017-08-19T01:31:22.715Z,26.4
2017-08-19T01:36:28.120Z,26.4
2017-08-19T01:41:33.860Z,26.4
2017-08-19T01:46:38.268Z,26.4
2017-08-19T01:51:43.677Z,26.4
2017-08-19T01:56:49.099Z,26.4
2017-08-19T02:01:54.845Z,26.4
2017-08-19T02:07:00.260Z,26.3
2017-08-19T02:12:06.021Z,26.3
2017-08-19T02:17:11.444Z,26.3
2017-08-19T02:22:17.536Z,26.3
2017-08-19T02:27:23.283Z,26.3
2017-08-19T02:32:29.039Z,26.3
2017-08-19T02:37:34.795Z,26.3
2017-08-19T02:42:40.209Z,26.3
2017-08-19T02:47:45.633Z,26.3
2017-08-19T02:52:51.050Z,26.3
2017-08-19T02:57:56.799Z,26.3
2017-08-19T03:03:02.550Z,26.3
2017-08-19T03:08:08.637Z,26.3
2017-08-19T03:13:14.055Z,26.3
2017-08-19T03:18:18.809Z,26.3
2017-08-19T03:23:24.904Z,26.2
2017-08-19T03:28:30.318Z,26.2
2017-08-19T03:33:36.398Z,26.2
2017-08-19T03:38:42.157Z,26.2
2017-08-19T03:43:47.569Z,26.2
2017-08-19T03:48:52.641Z,26.2
2017-08-19T03:53:58.050Z,26.2
2017-08-19T03:59:03.801Z,26.2
2017-08-19T04:04:08.883Z,26.2
2017-08-19T04:09:13.633Z,26.2
2017-08-19T04:14:19.386Z,26.2
2017-08-19T04:19:24.806Z,26.2
2017-08-19T04:24:29.890Z,26.2
2017-08-19T04:29:35.317Z,26.2
2017-08-19T04:34:40.061Z,26.2
2017-08-19T04:39:45.802Z,26.2
2017-08-19T04:44:51.551Z,26.2
2017-08-19T04:49:56.296Z,26.2
2017-08-19T04:55:02.046Z,26.2
2017-08-19T05:00:07.131Z,26.2
2017-08-19T05:05:12.218Z,26.2
2017-08-19T05:10:17.637Z,26.2
2017-08-19T05:15:22.720Z,26.2
2017-08-19T05:20:27.797Z,26.2
2017-08-19T05:25:33.548Z,26.2
2017-08-19T05:30:39.305Z,26.2
2017-08-19T05:35:45.064Z,26.2
2017-08-19T05:40:50.823Z,26.3
2017-08-19T05:45:56.585Z,26.3
2017-08-19T05:51:01.669Z,26.3
2017-08-19T05:56:07.095Z,26.3
2017-08-19T06:01:12.507Z,26.3
2017-08-19T06:06:18.269Z,26.4
2017-08-19T06:11:23.687Z,26.4
2017-08-19T06:16:28.780Z,26.5
2017-08-19T06:21:33.875Z,26.5
2017-08-19T06:26:39.973Z,26.6
2017-08-19T06:31:45.392Z,26.6
2017-08-19T06:36:51.482Z,26.6
2017-08-19T06:41:57.236Z,26.7
2017-08-19T06:47:02.992Z,26.7
2017-08-19T06:52:08.642Z,26.7
2017-08-19T06:57:14.448Z,26.8
2017-08-19T07:02:19.874Z,26.8
2017-08-19T07:07:25.290Z,26.9
2017-08-19T07:12:31.063Z,26.9
2017-08-19T07:17:36.493Z,27
2017-08-19T07:22:42.244Z,27
2017-08-19T07:27:47.673Z,27.1
2017-08-19T07:32:52.773Z,27.1
2017-08-19T07:37:57.902Z,27.2
2017-08-19T07:43:04.239Z,27.2
2017-08-19T07:48:09.751Z,27.3
2017-08-19T07:53:15.187Z,27.5
2017-08-19T07:58:21.315Z,27.6
2017-08-19T08:03:27.450Z,27.8
2017-08-19T08:08:32.617Z,27.9
2017-08-19T08:13:38.450Z,28
2017-08-19T08:18:43.938Z,28
2017-08-19T08:23:49.439Z,27.8
2017-08-19T08:28:55.795Z,27.9
2017-08-19T08:34:02.002Z,27.9
2017-08-19T08:39:07.810Z,28.1
2017-08-19T08:44:13.335Z,28.3
2017-08-19T08:49:18.527Z,28.3
2017-08-19T08:54:24.333Z,28.2
2017-08-19T08:59:30.201Z,28
2017-08-19T09:04:35.017Z,27.8
2017-08-19T09:09:40.545Z,27.5
2017-08-19T09:14:46.020Z,27.1
2017-08-19T09:19:52.192Z,26.8
2017-08-19T09:24:57.994Z,26.4
2017-08-19T09:30:03.160Z,26
2017-08-19T09:35:09.333Z,25.7
2017-08-19T09:40:14.491Z,25.4
2017-08-19T09:45:19.991Z,25.3
2017-08-19T09:50:25.158Z,25.3
2017-08-19T09:55:30.795Z,25.2
2017-08-19T10:00:36.705Z,25.3
2017-08-19T10:05:42.531Z,25.2
2017-08-19T10:10:48.003Z,25.2
